createdAt,value
2023-04-07T00:02:02.064Z,70.71
2023-04-07T00:04:34.237Z,70.87
2023-04-07T00:07:06.093Z,70.68
2023-04-07T00:09:37.952Z,71.29
2023-04-07T00:12:10.496Z,72.02
2023-04-07T00:14:42.177Z,72.17
2023-04-07T00:17:13.959Z,73.06
2023-04-07T00:19:46.316Z,73.51
2023-04-07T00:22:18.664Z,73.57
2023-04-07T00:24:49.392Z,73.74
2023-04-07T00:27:22.210Z,73.70
2023-04-07T00:29:55.358Z,74.39
2023-04-07T00:32:27.350Z,74.67
2023-04-07T00:34:59.456Z,75.66
2023-04-07T00:37:34.418Z,75.31
2023-04-07T00:40:07.530Z,76.50
2023-04-07T00:42:39.814Z,76.88
2023-04-07T00:45:13.533Z,77.55
2023-04-07T00:47:45.478Z,77.78
2023-04-07T00:50:18.410Z,78.50
2023-04-07T00:52:50.439Z,78.76
2023-04-07T00:55:23.760Z,79.45
2023-04-07T00:57:55.573Z,80.33
2023-04-07T01:00:28.053Z,80.71
2023-04-07T01:03:07.423Z,81.62
2023-04-07T01:05:44.478Z,82.07
2023-04-07T01:08:23.040Z,83.13
2023-04-07T01:11:03.684Z,83.70
2023-04-07T01:13:44.317Z,83.90
2023-04-07T01:16:37.047Z,84.08
2023-04-07T01:19:17.359Z,83.59
2023-04-07T01:22:00.179Z,83.96
2023-04-07T01:24:56.418Z,84.76
2023-04-07T01:27:39.183Z,85.86
2023-04-07T01:30:14.267Z,86.04
2023-04-07T01:32:51.435Z,85.46
2023-04-07T01:35:25.575Z,85.06
2023-04-07T01:37:58.238Z,85.97
2023-04-07T01:40:29.456Z,85.51
2023-04-07T01:43:02.686Z,85.56
2023-04-07T01:45:37.092Z,86.18
2023-04-07T01:48:11.470Z,86.12
2023-04-07T01:50:45.202Z,86.66
2023-04-07T01:53:18.660Z,86.41
2023-04-07T01:55:49.292Z,87.57
2023-04-07T01:58:21.570Z,87.71
2023-04-07T02:00:53.493Z,86.80
2023-04-07T02:03:32.564Z,86.29
2023-04-07T02:06:08.328Z,86.67
2023-04-07T02:08:44.509Z,86.49
2023-04-07T02:11:20.419Z,86.73
2023-04-07T02:13:56.050Z,87.86
2023-04-07T02:16:29.682Z,88.47
2023-04-07T02:19:02.449Z,88.78
2023-04-07T02:21:34.622Z,88.74
2023-04-07T02:24:08.761Z,88.54
2023-04-07T02:26:41.218Z,89.04
2023-04-07T02:29:13.461Z,89.97
2023-04-07T02:31:45.592Z,90.09
2023-04-07T02:34:17.521Z,90.57
2023-04-07T02:36:50.320Z,90.82
2023-04-07T02:39:22.642Z,90.99
2023-04-07T02:41:54.746Z,91.27
2023-04-07T02:44:26.440Z,91.65
2023-04-07T02:46:58.683Z,91.73
2023-04-07T02:49:30.855Z,92.72
2023-04-07T02:52:02.813Z,92.63
2023-04-07T02:54:34.588Z,92.08
2023-04-07T02:57:06.787Z,91.81
2023-04-07T02:59:37.603Z,92.11
2023-04-07T03:02:10.197Z,92.33
2023-04-07T03:04:42.624Z,92.99
2023-04-07T03:07:14.575Z,93.71
2023-04-07T03:09:46.724Z,94.23
2023-04-07T03:12:21.587Z,94.86
2023-04-07T03:14:53.455Z,95.45
2023-04-07T03:17:26.400Z,95.93
2023-04-07T03:19:58.675Z,96.17
2023-04-07T03:22:31.490Z,96.12
2023-04-07T03:25:04.129Z,96.07
2023-04-07T03:27:36.205Z,96.37
2023-04-07T03:30:11.223Z,97.07
2023-04-07T03:32:44.093Z,96.85
2023-04-07T03:35:16.351Z,97.22
2023-04-07T03:37:49.959Z,96.67
2023-04-07T03:40:23.040Z,96.92
2023-04-07T03:42:55.088Z,97.74
2023-04-07T03:45:27.169Z,98.19
2023-04-07T03:47:59.172Z,98.54
2023-04-07T03:50:30.998Z,98.73
2023-04-07T03:53:17.076Z,99.70
2023-04-07T03:55:48.970Z,99.89
2023-04-07T03:58:30.142Z,99.71
2023-04-07T04:01:02.150Z,98.92
2023-04-07T04:03:34.165Z,99.08
2023-04-07T04:06:22.408Z,99.54
2023-04-07T04:08:54.739Z,99.28
2023-04-07T04:11:27.502Z,98.86
2023-04-07T04:14:03.091Z,97.89
2023-04-07T04:16:38.097Z,96.93
2023-04-07T04:19:17.550Z,96.35
2023-04-07T04:21:50.039Z,96.09
2023-04-07T04:24:21.292Z,95.97
2023-04-07T04:26:53.311Z,95.82
2023-04-07T04:29:25.680Z,96.13
2023-04-07T04:31:59.230Z,96.91
2023-04-07T04:34:31.677Z,97.87
2023-04-07T04:37:04.174Z,97.87
2023-04-07T04:39:36.686Z,97.54
2023-04-07T04:42:07.445Z,97.11
2023-04-07T04:44:40.748Z,96.68
2023-04-07T04:47:12.981Z,97.01
2023-04-07T04:49:45.030Z,97.66
2023-04-07T04:52:17.047Z,98.24
2023-04-07T04:54:50.550Z,97.82
2023-04-07T04:57:23.190Z,98.21
2023-04-07T04:59:55.436Z,98.87
2023-04-07T05:02:29.265Z,98.31
2023-04-07T05:05:02.115Z,98.17
2023-04-07T05:07:34.428Z,98.45
2023-04-07T05:10:09.381Z,99.34
2023-04-07T05:12:42.448Z,99.84
2023-04-07T05:15:15.314Z,99.93
2023-04-07T05:17:50.388Z,99.65
2023-04-07T05:20:26.176Z,99.26
2023-04-07T05:22:58.036Z,99.07
2023-04-07T05:25:34.716Z,99.31
2023-04-07T05:28:09.366Z,99.51
2023-04-07T05:30:41.455Z,100.00
2023-04-07T05:33:14.081Z,100.00
2023-04-07T05:35:55.311Z,100.00
2023-04-07T05:38:27.158Z,100.00
2023-04-07T05:41:01.960Z,100.00
2023-04-07T05:43:37.326Z,100.00
2023-04-07T05:46:10.873Z,100.00
2023-04-07T05:48:49.251Z,100.00
2023-04-07T05:51:21.974Z,100.00
2023-04-07T05:53:54.272Z,100.00
2023-04-07T05:56:27.282Z,100.00
2023-04-07T05:59:01.827Z,100.00
2023-04-07T06:01:34.452Z,100.00
2023-04-07T06:04:06.952Z,100.00
2023-04-07T06:06:39.334Z,100.00
2023-04-07T06:09:11.249Z,100.00
2023-04-07T06:11:43.213Z,100.00
2023-04-07T06:14:14.996Z,100.00
2023-04-07T06:16:47.696Z,100.00
2023-04-07T06:19:19.665Z,100.00
2023-04-07T06:21:51.825Z,99.99
2023-04-07T06:24:25.149Z,100.00
2023-04-07T06:26:58.727Z,100.00
2023-04-07T06:29:30.576Z,100.00
2023-04-07T06:32:03.191Z,100.00
2023-04-07T06:34:36.257Z,100.00
2023-04-07T06:37:08.666Z,100.00
2023-04-07T06:39:40.800Z,100.00
2023-04-07T06:42:12.643Z,100.00
2023-04-07T06:44:54.035Z,100.00
2023-04-07T06:47:25.929Z,100.00
2023-04-07T06:49:57.718Z,100.00
2023-04-07T06:52:29.544Z,100.00
2023-04-07T06:55:01.540Z,100.00
2023-04-07T06:57:33.556Z,100.00
2023-04-07T07:00:07.928Z,100.00
2023-04-07T07:02:40.400Z,100.00
2023-04-07T07:05:13.356Z,100.00
2023-04-07T07:07:45.307Z,100.00
2023-04-07T07:10:17.397Z,100.00
2023-04-07T07:12:49.446Z,100.00
2023-04-07T07:15:21.379Z,100.00
2023-04-07T07:17:53.206Z,100.00
2023-04-07T07:20:26.081Z,100.00
2023-04-07T07:22:58.462Z,100.00
2023-04-07T07:25:30.582Z,100.00
2023-04-07T07:28:02.549Z,100.00
2023-04-07T07:30:35.308Z,100.00
2023-04-07T07:33:07.419Z,100.00
2023-04-07T07:35:40.750Z,100.00
2023-04-07T07:38:12.014Z,100.00
2023-04-07T07:40:43.840Z,100.00
2023-04-07T07:43:15.719Z,100.00
2023-04-07T07:45:47.935Z,100.00
2023-04-07T07:48:19.908Z,100.00
2023-04-07T07:50:52.615Z,100.00
2023-04-07T07:53:25.032Z,100.00
2023-04-07T07:55:57.219Z,100.00
2023-04-07T07:58:29.137Z,100.00
2023-04-07T08:01:01.080Z,100.00
2023-04-07T08:03:33.392Z,100.00
2023-04-07T08:06:06.459Z,100.00
2023-04-07T08:08:37.049Z,100.00
2023-04-07T08:11:09.549Z,100.00
2023-04-07T08:13:45.527Z,100.00
2023-04-07T08:16:17.595Z,100.00
2023-04-07T08:18:50.001Z,100.00
2023-04-07T08:21:22.080Z,100.00
2023-04-07T08:23:54.243Z,100.00
2023-04-07T08:26:26.192Z,100.00
2023-04-07T08:28:58.531Z,100.00
2023-04-07T08:31:30.415Z,100.00
2023-04-07T08:34:02.289Z,100.00
2023-04-07T08:36:34.651Z,100.00
2023-04-07T08:39:06.994Z,100.00
2023-04-07T08:41:41.367Z,100.00
2023-04-07T08:44:14.190Z,100.00
2023-04-07T08:46:47.321Z,100.00
2023-04-07T08:49:21.201Z,100.00
2023-04-07T08:51:55.766Z,100.00
2023-04-07T08:54:30.455Z,100.00
2023-04-07T08:57:03.889Z,100.00
2023-04-07T08:59:36.732Z,100.00
2023-04-07T09:02:08.960Z,100.00
2023-04-07T09:04:42.302Z,100.00
2023-04-07T09:07:15.520Z,100.00
2023-04-07T09:09:47.910Z,100.00
2023-04-07T09:12:19.996Z,100.00
2023-04-07T09:14:52.165Z,100.00
2023-04-07T09:17:26.042Z,100.00
2023-04-07T09:19:59.625Z,100.00
2023-04-07T09:22:43.376Z,100.00
2023-04-07T09:25:20.154Z,100.00
2023-04-07T09:27:59.998Z,100.00
2023-04-07T09:30:32.944Z,100.00
2023-04-07T09:33:05.537Z,100.00
2023-04-07T09:35:54.493Z,100.00
2023-04-07T09:38:36.050Z,100.00
2023-04-07T09:41:12.987Z,100.00
2023-04-07T09:43:47.095Z,100.00
2023-04-07T09:46:19.995Z,100.00
2023-04-07T09:49:05.927Z,100.00
2023-04-07T09:51:38.242Z,100.00
2023-04-07T09:54:10.464Z,100.00
2023-04-07T09:56:42.338Z,100.00
2023-04-07T09:59:15.244Z,100.00
2023-04-07T10:01:47.557Z,100.00
2023-04-07T10:04:19.830Z,100.00
2023-04-07T10:06:53.190Z,100.00
2023-04-07T10:09:26.499Z,100.00
2023-04-07T10:12:00.307Z,100.00
2023-04-07T10:14:33.646Z,100.00
2023-04-07T10:17:06.440Z,100.00
2023-04-07T10:19:37.150Z,100.00
2023-04-07T10:22:09.749Z,100.00
2023-04-07T10:24:53.783Z,100.00
2023-04-07T10:27:32.120Z,100.00
2023-04-07T10:30:05.103Z,100.00
2023-04-07T10:32:49.022Z,100.00
2023-04-07T10:35:22.385Z,100.00
2023-04-07T10:38:14.043Z,100.00
2023-04-07T10:40:46.511Z,100.00
2023-04-07T10:43:45.005Z,100.00
2023-04-07T10:46:17.021Z,100.00
2023-04-07T10:49:13.382Z,100.00
2023-04-07T10:51:45.579Z,100.00
2023-04-07T10:54:22.467Z,100.00
2023-04-07T10:57:18.265Z,100.00
2023-04-07T11:00:24.118Z,100.00
2023-04-07T11:02:56.511Z,100.00
2023-04-07T11:05:28.532Z,100.00
2023-04-07T11:08:02.775Z,100.00
2023-04-07T11:10:37.827Z,100.00
2023-04-07T11:13:10.550Z,100.00
2023-04-07T11:15:41.106Z,100.00
2023-04-07T11:18:18.413Z,100.00
2023-04-07T11:20:57.356Z,100.00
2023-04-07T11:23:29.482Z,100.00
2023-04-07T11:26:04.516Z,100.00
2023-04-07T11:28:37.997Z,100.00
2023-04-07T11:31:10.465Z,100.00
2023-04-07T11:33:43.673Z,100.00
2023-04-07T11:36:15.588Z,100.00
2023-04-07T11:38:47.715Z,100.00
2023-04-07T11:41:19.709Z,100.00
2023-04-07T11:44:04.620Z,100.00
2023-04-07T11:46:37.455Z,100.00
2023-04-07T11:49:14.471Z,100.00
2023-04-07T11:51:47.467Z,100.00
2023-04-07T11:54:19.486Z,100.00
2023-04-07T11:56:55.318Z,100.00
2023-04-07T11:59:28.661Z,100.00
2023-04-07T12:02:00.563Z,100.00
2023-04-07T12:04:32.957Z,100.00
2023-04-07T12:07:12.012Z,100.00
2023-04-07T12:09:43.741Z,100.00
2023-04-07T12:12:15.509Z,100.00
2023-04-07T12:14:47.841Z,100.00
2023-04-07T12:17:24.766Z,100.00
2023-04-07T12:19:56.894Z,100.00
2023-04-07T12:22:28.876Z,100.00
2023-04-07T12:25:00.946Z,100.00
2023-04-07T12:27:42.163Z,100.00
2023-04-07T12:30:16.236Z,100.00
2023-04-07T12:32:48.208Z,100.00
2023-04-07T12:35:20.081Z,100.00
2023-04-07T12:37:52.931Z,100.00
2023-04-07T12:40:24.826Z,100.00
2023-04-07T12:42:58.415Z,100.00
2023-04-07T12:45:31.142Z,100.00
2023-04-07T12:48:01.922Z,100.00
2023-04-07T12:50:34.238Z,100.00
2023-04-07T12:53:06.041Z,100.00
2023-04-07T12:55:37.883Z,100.00
2023-04-07T12:58:10.129Z,100.00
2023-04-07T13:00:42.694Z,100.00
2023-04-07T13:03:14.796Z,100.00
2023-04-07T13:05:47.134Z,100.00
2023-04-07T13:08:18.904Z,100.00
2023-04-07T13:10:50.753Z,100.00
2023-04-07T13:13:22.872Z,100.00
2023-04-07T13:15:54.848Z,100.00
2023-04-07T13:18:27.289Z,100.00
2023-04-07T13:21:27.391Z,100.00
2023-04-07T13:23:51.759Z,100.00
2023-04-07T13:26:22.302Z,100.00
2023-04-07T13:28:54.183Z,100.00
2023-04-07T13:31:26.169Z,100.00
2023-04-07T13:33:58.558Z,100.00
2023-04-07T13:36:30.696Z,100.00
2023-04-07T13:39:02.492Z,100.00
2023-04-07T13:41:34.477Z,100.00
2023-04-07T13:44:06.549Z,100.00
2023-04-07T13:46:38.995Z,100.00
2023-04-07T13:49:09.571Z,100.00
2023-04-07T13:51:41.411Z,100.00
2023-04-07T13:54:13.297Z,100.00
2023-04-07T13:56:45.319Z,100.00
2023-04-07T13:59:17.758Z,100.00
2023-04-07T14:01:49.835Z,100.00
2023-04-07T14:04:22.804Z,100.00
2023-04-07T14:06:55.011Z,100.00
2023-04-07T14:09:26.851Z,100.00
2023-04-07T14:11:59.642Z,100.00
2023-04-07T14:14:31.528Z,100.00
2023-04-07T14:17:03.614Z,100.00
2023-04-07T14:19:35.895Z,100.00
2023-04-07T14:22:07.882Z,100.00
2023-04-07T14:24:39.714Z,100.00
2023-04-07T14:27:11.485Z,100.00
2023-04-07T14:29:43.329Z,100.00
2023-04-07T14:32:15.323Z,100.00
2023-04-07T14:34:47.881Z,100.00
2023-04-07T14:37:23.990Z,100.00
2023-04-07T14:42:31.926Z,100.00
2023-04-07T14:45:04.508Z,100.00
2023-04-07T14:47:36.590Z,100.00
2023-04-07T14:50:09.698Z,100.00
2023-04-07T14:52:41.551Z,100.00
2023-04-07T14:55:13.549Z,100.00
2023-04-07T14:57:45.879Z,100.00
2023-04-07T15:00:18.643Z,100.00
2023-04-07T15:02:50.937Z,100.00
2023-04-07T15:05:23.582Z,100.00
2023-04-07T15:07:55.795Z,100.00
2023-04-07T15:10:27.807Z,100.00
2023-04-07T15:12:59.659Z,100.00
2023-04-07T15:15:32.070Z,100.00
2023-04-07T15:18:04.425Z,100.00
2023-04-07T15:20:36.460Z,100.00
2023-04-07T15:23:08.503Z,100.00
2023-04-07T15:25:41.241Z,100.00
2023-04-07T15:28:13.163Z,100.00
2023-04-07T15:30:46.142Z,100.00
2023-04-07T15:33:18.613Z,100.00
2023-04-07T15:35:50.555Z,100.00
2023-04-07T15:38:22.601Z,100.00
2023-04-07T15:40:54.566Z,100.00
2023-04-07T15:43:26.628Z,100.00
2023-04-07T15:45:58.565Z,100.00
2023-04-07T15:48:31.346Z,100.00
2023-04-07T15:51:02.108Z,100.00
2023-04-07T15:53:34.210Z,100.00
2023-04-07T15:56:07.122Z,100.00
2023-04-07T15:58:37.464Z,100.00
2023-04-07T16:01:09.715Z,100.00
2023-04-07T16:03:41.632Z,100.00
2023-04-07T16:06:13.781Z,100.00
2023-04-07T16:08:45.664Z,100.00
2023-04-07T16:11:17.549Z,100.00
2023-04-07T16:13:50.294Z,100.00
2023-04-07T16:16:22.523Z,100.00
2023-04-07T16:18:54.610Z,100.00
2023-04-07T16:21:27.729Z,100.00
2023-04-07T16:23:59.731Z,100.00
2023-04-07T16:26:31.631Z,100.00
2023-04-07T16:29:03.381Z,100.00
2023-04-07T16:31:35.645Z,100.00
2023-04-07T16:34:07.417Z,100.00
2023-04-07T16:36:39.601Z,100.00
2023-04-07T16:39:11.565Z,100.00
2023-04-07T16:41:43.288Z,100.00
2023-04-07T16:44:15.041Z,100.00
2023-04-07T16:46:46.929Z,100.00
2023-04-07T16:49:18.726Z,100.00
2023-04-07T16:51:50.695Z,100.00
2023-04-07T16:54:22.555Z,100.00
2023-04-07T16:56:54.467Z,100.00
2023-04-07T16:59:26.248Z,100.00
2023-04-07T17:01:58.053Z,100.00
2023-04-07T17:04:30.633Z,100.00
2023-04-07T17:07:02.584Z,100.00
2023-04-07T17:09:34.846Z,100.00
2023-04-07T17:12:06.946Z,100.00
2023-04-07T17:14:38.897Z,100.00
2023-04-07T17:17:10.902Z,100.00
2023-04-07T17:19:43.083Z,100.00
2023-04-07T17:22:14.970Z,100.00
2023-04-07T17:24:50.197Z,100.00
2023-04-07T17:27:22.394Z,100.00
2023-04-07T17:29:54.310Z,100.00
2023-04-07T17:32:26.167Z,100.00
2023-04-07T17:34:57.990Z,100.00
2023-04-07T17:37:29.832Z,100.00
2023-04-07T17:40:01.793Z,100.00
2023-04-07T17:42:33.954Z,100.00
2023-04-07T17:45:06.942Z,100.00
2023-04-07T17:47:40.400Z,100.00
2023-04-07T17:50:13.326Z,100.00
2023-04-07T17:52:46.114Z,100.00
2023-04-07T17:55:18.462Z,100.00
2023-04-07T17:57:50.612Z,100.00
2023-04-07T18:00:25.736Z,100.00
2023-04-07T18:02:57.873Z,100.00
2023-04-07T18:05:31.074Z,100.00
2023-04-07T18:08:01.509Z,100.00
2023-04-07T18:10:33.433Z,100.00
2023-04-07T18:13:06.625Z,100.00
2023-04-07T18:15:38.525Z,100.00
2023-04-07T18:18:10.636Z,100.00
2023-04-07T18:20:42.854Z,100.00
2023-04-07T18:23:14.886Z,100.00
2023-04-07T18:25:47.203Z,100.00
2023-04-07T18:28:20.150Z,100.00
2023-04-07T18:31:00.187Z,100.00
2023-04-07T18:33:34.235Z,100.00
2023-04-07T18:36:08.197Z,100.00
2023-04-07T18:38:40.575Z,100.00
2023-04-07T18:41:14.369Z,100.00
2023-04-07T18:43:47.604Z,100.00
2023-04-07T18:46:20.781Z,100.00
2023-04-07T18:48:52.509Z,100.00
2023-04-07T18:51:24.263Z,100.00
2023-04-07T18:53:56.054Z,100.00
2023-04-07T18:56:28.432Z,100.00
2023-04-07T18:59:01.285Z,100.00
2023-04-07T19:01:33.417Z,100.00
2023-04-07T19:04:06.061Z,100.00
2023-04-07T19:06:38.254Z,100.00
2023-04-07T19:09:10.316Z,100.00
2023-04-07T19:11:41.873Z,100.00
2023-04-07T19:14:14.483Z,100.00
2023-04-07T19:16:46.888Z,100.00
2023-04-07T19:19:19.296Z,100.00
2023-04-07T19:21:51.295Z,100.00
2023-04-07T19:24:23.233Z,100.00
2023-04-07T19:26:55.047Z,100.00
2023-04-07T19:29:27.049Z,100.00
2023-04-07T19:31:59.770Z,100.00
2023-04-07T19:34:32.635Z,100.00
2023-04-07T19:37:04.696Z,100.00
2023-04-07T19:39:36.532Z,100.00
2023-04-07T19:42:08.477Z,100.00
2023-04-07T19:44:40.500Z,100.00
2023-04-07T19:47:12.552Z,100.00
2023-04-07T19:49:46.101Z,100.00
2023-04-07T19:52:18.371Z,100.00
2023-04-07T19:54:50.097Z,100.00
2023-04-07T19:57:22.012Z,100.00
2023-04-07T19:59:53.861Z,100.00
2023-04-07T20:02:25.927Z,100.00
2023-04-07T20:04:58.339Z,100.00
2023-04-07T20:07:30.903Z,100.00
2023-04-07T20:10:03.918Z,100.00
2023-04-07T20:12:36.119Z,100.00
2023-04-07T20:15:11.123Z,100.00
2023-04-07T20:17:43.496Z,100.00
2023-04-07T20:20:17.905Z,100.00
2023-04-07T20:22:49.917Z,100.00
2023-04-07T20:25:22.137Z,100.00
2023-04-07T20:27:53.987Z,100.00
2023-04-07T20:30:25.871Z,100.00
2023-04-07T20:32:57.776Z,100.00
2023-04-07T20:35:30.280Z,100.00
2023-04-07T20:38:02.868Z,100.00
2023-04-07T20:40:36.853Z,100.00
2023-04-07T20:43:09.304Z,100.00
2023-04-07T20:45:41.771Z,100.00
2023-04-07T20:48:15.528Z,100.00
2023-04-07T20:50:48.458Z,100.00
2023-04-07T20:53:18.775Z,100.00
2023-04-07T20:55:50.553Z,100.00
2023-04-07T20:58:23.074Z,100.00
2023-04-07T21:00:59.578Z,100.00
2023-04-07T21:03:31.606Z,100.00
2023-04-07T21:06:04.749Z,100.00
2023-04-07T21:08:36.492Z,100.00
2023-04-07T21:11:08.295Z,100.00
2023-04-07T21:13:40.017Z,100.00
2023-04-07T21:16:11.846Z,100.00
2023-04-07T21:18:43.844Z,100.00
2023-04-07T21:21:15.693Z,100.00
2023-04-07T21:23:47.510Z,100.00
2023-04-07T21:26:19.620Z,100.00
2023-04-07T21:28:51.835Z,100.00
2023-04-07T21:31:25.249Z,100.00
2023-04-07T21:33:57.065Z,100.00
2023-04-07T21:36:29.046Z,100.00
2023-04-07T21:39:01.391Z,100.00
2023-04-07T21:41:33.544Z,100.00
2023-04-07T21:44:07.546Z,100.00
2023-04-07T21:46:39.549Z,100.00
2023-04-07T21:49:11.459Z,100.00
2023-04-07T21:51:43.309Z,100.00
2023-04-07T21:54:15.664Z,100.00
2023-04-07T21:56:49.157Z,100.00
2023-04-07T21:59:21.987Z,100.00
2023-04-07T22:01:52.625Z,100.00
2023-04-07T22:04:24.774Z,100.00
2023-04-07T22:06:58.102Z,100.00
2023-04-07T22:09:30.598Z,100.00
2023-04-07T22:12:02.901Z,100.00
2023-04-07T22:14:35.123Z,100.00
2023-04-07T22:17:08.747Z,100.00
2023-04-07T22:19:40.900Z,100.00
2023-04-07T22:22:12.833Z,100.00
2023-04-07T22:24:44.762Z,100.00
2023-04-07T22:27:16.922Z,100.00
2023-04-07T22:29:49.256Z,100.00
2023-04-07T22:32:21.482Z,100.00
2023-04-07T22:34:53.422Z,100.00
2023-04-07T22:37:25.130Z,100.00
2023-04-07T22:39:56.967Z,100.00
2023-04-07T22:42:28.736Z,100.00
2023-04-07T22:45:00.567Z,100.00
2023-04-07T22:47:32.420Z,100.00
2023-04-07T22:50:04.876Z,100.00
2023-04-07T22:52:36.926Z,100.00
2023-04-07T22:55:10.951Z,100.00
2023-04-07T22:57:42.685Z,100.00
2023-04-07T23:00:15.441Z,100.00
2023-04-07T23:02:45.871Z,100.00
2023-04-07T23:05:17.888Z,100.00
2023-04-07T23:07:51.279Z,100.00
2023-04-07T23:10:23.116Z,100.00
2023-04-07T23:12:55.675Z,100.00
2023-04-07T23:15:27.944Z,100.00
2023-04-07T23:17:59.722Z,100.00
2023-04-07T23:20:31.678Z,100.00
2023-04-07T23:23:03.513Z,100.00
2023-04-07T23:25:36.116Z,100.00
2023-04-07T23:28:07.830Z,100.00
2023-04-07T23:30:40.126Z,100.00
2023-04-07T23:33:12.473Z,100.00
2023-04-07T23:35:44.187Z,100.00
2023-04-07T23:38:17.228Z,100.00
2023-04-07T23:40:48.944Z,100.00
2023-04-07T23:43:20.906Z,100.00
2023-04-07T23:45:52.673Z,100.00
2023-04-07T23:48:26.201Z,100.00
2023-04-07T23:50:59.850Z,100.00
2023-04-07T23:53:32.228Z,100.00
2023-04-07T23:56:04.075Z,100.00
2023-04-07T23:58:35.892Z,100.00
